Time;durP1;ratioP1;P1;durP2;ratioP2;P2;SDS_P1;SDS_P2;PMS_P1;PMS_P2;Temp;Humidity;BMP_temperature;BMP_pressure;BME280_temperature;BME280_humidity;BME280_pressure;Samples;Min_cycle;Max_cycle;Signal;HPM_P1;HPM_P2
2021/10/01 00:01:43;;;;;;;28.35;16.82;;;;;;;11.23;65.57;101951.50;1653278;85;21462;-72
2021/10/01 00:04:12;;;;;;;27.17;17.17;;;;;;;11.23;64.61;101951.50;1651130;84;21524;-72
2021/10/01 00:06:40;;;;;;;30.08;17.48;;;;;;;11.11;65.40;101952.19;1651785;85;20972;-72
2021/10/01 00:09:07;;;;;;;39.35;22.10;;;;;;;11.06;65.83;101952.63;1652022;85;20960;-71
2021/10/01 00:11:34;;;;;;;33.58;20.27;;;;;;;11.01;65.66;101951.39;1654023;84;21047;-71
2021/10/01 00:14:02;;;;;;;34.53;20.20;;;;;;;10.69;68.46;101950.83;1652505;85;21517;-72
2021/10/01 00:16:31;;;;;;;43.25;23.00;;;;;;;10.52;69.49;101953.34;1663107;84;21584;-71
2021/10/01 00:18:58;;;;;;;35.83;21.68;;;;;;;10.66;69.42;101956.81;1681135;83;22549;-72
2021/10/01 00:21:25;;;;;;;30.35;18.85;;;;;;;10.76;67.63;101954.16;1680642;83;21501;-72
2021/10/01 00:23:52;;;;;;;28.57;18.52;;;;;;;10.71;67.67;101955.41;1681511;83;21529;-72
2021/10/01 00:26:19;;;;;;;27.67;17.62;;;;;;;10.75;67.59;101952.03;1680866;85;21565;-72
2021/10/01 00:28:46;;;;;;;29.85;20.43;;;;;;;10.70;68.81;101955.56;1671145;83;20995;-72
2021/10/01 00:31:13;;;;;;;33.80;20.48;;;;;;;10.64;68.86;101954.33;1681065;83;21616;-70
2021/10/01 00:33:41;;;;;;;39.95;22.90;;;;;;;10.90;67.85;101953.70;1671567;83;21180;-71
2021/10/01 00:36:08;;;;;;;31.10;19.55;;;;;;;11.03;66.84;101957.31;1681314;83;20971;-71
2021/10/01 00:38:35;;;;;;;29.45;18.92;;;;;;;10.98;67.39;101960.33;1679909;83;21834;-69
2021/10/01 00:41:02;;;;;;;28.30;19.25;;;;;;;11.03;66.89;101958.61;1681294;83;21003;-71
2021/10/01 00:43:29;;;;;;;23.70;15.88;;;;;;;11.22;67.49;101960.30;1680577;83;21539;-70
2021/10/01 00:45:56;;;;;;;22.67;13.72;;;;;;;11.16;68.01;101964.30;1671651;83;21439;-70
2021/10/01 00:48:24;;;;;;;22.22;14.20;;;;;;;11.21;68.82;101959.46;1680067;83;21528;-70
2021/10/01 00:50:51;;;;;;;26.60;14.70;;;;;;;11.28;68.47;101961.02;1676141;84;22085;-70
2021/10/01 00:53:18;;;;;;;23.95;15.50;;;;;;;11.18;68.77;101961.90;1680542;83;20978;-70
2021/10/01 00:55:45;;;;;;;24.95;14.20;;;;;;;10.99;68.25;101966.39;1681438;83;21054;-71
2021/10/01 00:58:12;;;;;;;21.97;14.33;;;;;;;10.88;70.15;101964.78;1680303;83;21023;-71
2021/10/01 01:00:56;;;;;;;24.67;14.47;;;;;;;10.71;71.55;101963.72;1680861;83;22433;-71
2021/10/01 01:03:08;;;;;;;22.95;14.58;;;;;;;10.64;70.99;101963.94;1671331;83;21622;-71
2021/10/01 01:06:10;;;;;;;21.90;13.22;;;;;;;9.91;75.06;101967.02;1687472;84;21544;-72
2021/10/01 01:08:57;;;;;;;21.27;13.53;;;;;;;9.88;82.49;101963.86;1687109;83;20967;-71
2021/10/01 01:11:45;;;;;;;18.67;13.10;;;;;;;9.89;83.29;101962.44;1677027;83;20979;-71
2021/10/01 01:14:18;;;;;;;22.15;13.60;;;;;;;9.80;85.48;101965.02;1687265;83;21109;-70
2021/10/01 01:16:46;;;;;;;21.05;13.93;;;;;;;9.70;87.67;101963.73;1687555;84;20955;-71
2021/10/01 01:19:34;;;;;;;18.52;13.18;;;;;;;10.27;82.11;101966.02;1684316;83;20896;-71
2021/10/01 01:22:27;;;;;;;21.95;14.53;;;;;;;10.23;81.04;101959.41;1685017;84;21591;-71
2021/10/01 01:25:29;;;;;;;25.60;16.07;;;;;;;10.27;79.92;101962.11;1679873;84;21694;-72
2021/10/01 01:28:45;;;;;;;24.80;14.90;;;;;;;9.82;87.42;101967.84;1678790;84;21449;-72
2021/10/01 01:31:20;;;;;;;23.95;15.88;;;;;;;9.66;91.69;101972.73;1686868;84;21151;-71
2021/10/01 01:33:47;;;;;;;25.10;16.27;;;;;;;9.89;91.68;101965.04;1686445;84;20999;-71
2021/10/01 01:36:15;;;;;;;25.40;18.50;;;;;;;9.64;94.71;101966.86;1687308;84;21023;-71
2021/10/01 01:38:46;;;;;;;26.33;16.60;;;;;;;9.61;95.44;101965.33;1648221;85;21536;-71
2021/10/01 01:41:14;;;;;;;24.95;16.40;;;;;;;9.74;96.42;101958.11;1658327;85;20988;-71
2021/10/01 01:43:41;;;;;;;22.42;14.90;;;;;;;9.42;99.10;101959.61;1677101;84;21197;-72
2021/10/01 01:46:08;;;;;;;21.07;14.20;;;;;;;9.47;100.00;101965.71;1625181;85;21496;-70
2021/10/01 01:48:34;;;;;;;23.27;15.05;;;;;;;9.56;100.00;101970.13;1658015;85;22408;-71
2021/10/01 01:51:01;;;;;;;22.65;14.47;;;;;;;9.50;97.50;101968.87;1657109;85;21635;-70
2021/10/01 01:53:30;;;;;;;24.15;15.93;;;;;;;9.60;94.30;101966.30;1658014;85;21112;-71
2021/10/01 01:55:57;;;;;;;28.02;17.15;;;;;;;9.45;93.41;101968.46;1657555;85;21233;-71
2021/10/01 01:58:24;;;;;;;29.98;18.82;;;;;;;9.35;95.08;101968.91;1657462;85;21090;-71
2021/10/01 02:01:08;;;;;;;27.22;16.50;;;;;;;9.30;93.11;101965.89;1658041;85;21128;-71
2021/10/01 02:03:37;;;;;;;25.88;17.20;;;;;;;9.35;91.44;101966.30;1677540;84;21161;-72
2021/10/01 02:06:05;;;;;;;24.45;15.80;;;;;;;9.57;90.62;101964.44;1651404;85;21003;-71
2021/10/01 02:08:32;;;;;;;26.40;16.37;;;;;;;9.57;89.89;101969.66;1649968;85;21101;-70
2021/10/01 02:10:59;;;;;;;25.88;17.50;;;;;;;9.55;92.37;101965.89;1641574;85;21011;-71
2021/10/01 02:13:25;;;;;;;26.10;17.30;;;;;;;9.79;90.93;101959.48;1647216;85;21194;-70
2021/10/01 02:15:54;;;;;;;25.48;17.70;;;;;;;9.52;94.14;101966.16;1654861;83;20999;-70
2021/10/01 02:18:26;;;;;;;27.25;17.27;;;;;;;9.41;99.11;101967.08;1677714;83;22202;-69
2021/10/01 02:20:53;;;;;;;25.00;16.55;;;;;;;9.42;98.34;101963.52;1678632;83;21150;-72
2021/10/01 02:23:19;;;;;;;27.67;17.15;;;;;;;8.71;100.00;101965.29;1678781;83;21039;-70
2021/10/01 02:28:49;;;;;;;24.85;15.85;;;;;;;8.74;100.00;101970.23;1669162;83;21063;-70
2021/10/01 02:31:21;;;;;;;25.90;16.27;;;;;;;8.76;100.00;101970.95;1678834;83;20967;-71
2021/10/01 02:33:49;;;;;;;26.02;16.73;;;;;;;8.63;100.00;101968.53;1681553;84;21826;-72
2021/10/01 02:36:16;;;;;;;23.77;15.98;;;;;;;8.60;100.00;101976.61;1678389;83;21030;-70
2021/10/01 02:38:43;;;;;;;26.33;15.03;;;;;;;8.63;100.00;101982.01;1669545;85;21113;-72
2021/10/01 02:41:10;;;;;;;21.17;12.13;;;;;;;8.67;100.00;101970.41;1649951;85;21094;-72
2021/10/01 02:43:37;;;;;;;22.07;13.72;;;;;;;8.58;100.00;101970.70;1678775;85;21086;-72
2021/10/01 02:46:03;;;;;;;22.58;13.50;;;;;;;8.55;100.00;101974.03;1668395;85;21112;-71
2021/10/01 02:48:35;;;;;;;20.60;14.03;;;;;;;8.59;100.00;101978.02;1678829;84;20978;-72
2021/10/01 02:51:05;;;;;;;23.22;14.23;;;;;;;8.79;100.00;101979.80;1679519;84;21556;-72
2021/10/01 02:53:37;;;;;;;18.27;12.82;;;;;;;8.82;100.00;101985.19;1683258;85;21498;-71
2021/10/01 02:56:15;;;;;;;17.70;12.55;;;;;;;8.81;100.00;101988.27;1678850;85;21120;-72
2021/10/01 02:59:01;;;;;;;20.27;13.90;;;;;;;8.83;100.00;101985.08;1652616;85;21170;-72
2021/10/01 03:01:29;;;;;;;19.60;13.43;;;;;;;8.55;100.00;101984.42;1716764;80;20970;-72
2021/10/01 03:04:07;;;;;;;18.62;13.08;;;;;;;8.61;100.00;101990.42;1767612;80;21050;-72
2021/10/01 03:06:35;;;;;;;19.82;12.82;;;;;;;8.47;100.00;101997.58;1755422;80;20944;-72
2021/10/01 03:09:03;;;;;;;17.90;12.10;;;;;;;8.52;100.00;101991.98;1740683;80;21018;-69
2021/10/01 03:11:31;;;;;;;17.10;11.83;;;;;;;8.64;100.00;101995.38;1761938;79;21636;-70
2021/10/01 03:13:58;;;;;;;17.73;12.00;;;;;;;8.66;100.00;101990.86;1775510;79;20897;-70
2021/10/01 03:16:24;;;;;;;21.50;11.60;;;;;;;8.73;100.00;101992.81;1774804;80;20983;-70
2021/10/01 03:18:51;;;;;;;18.75;12.20;;;;;;;8.81;100.00;101993.47;1775652;80;21003;-70
2021/10/01 03:21:20;;;;;;;19.12;12.95;;;;;;;9.04;100.00;101995.92;1774106;80;21053;-72
2021/10/01 03:23:47;;;;;;;18.67;12.35;;;;;;;9.01;100.00;101996.98;1775280;80;22231;-70
2021/10/01 03:26:14;;;;;;;18.75;12.58;;;;;;;9.14;100.00;101996.31;1770297;80;20996;-69
2021/10/01 03:28:41;;;;;;;20.57;11.93;;;;;;;9.48;100.00;101994.23;1736690;80;21490;-72
2021/10/01 03:31:08;;;;;;;18.00;12.55;;;;;;;9.48;98.60;101994.23;1771480;79;21011;-71
2021/10/01 03:33:36;;;;;;;21.85;14.28;;;;;;;9.29;100.00;102001.98;1771346;80;22139;-73
2021/10/01 03:36:04;;;;;;;21.07;14.07;;;;;;;9.22;100.00;101999.08;1775378;80;21884;-72
2021/10/01 03:38:31;;;;;;;23.52;14.60;;;;;;;9.34;100.00;102002.40;1733406;80;21011;-71
2021/10/01 03:41:00;;;;;;;21.75;13.00;;;;;;;9.47;100.00;102009.52;1773912;80;20932;-72
2021/10/01 03:43:27;;;;;;;18.42;13.05;;;;;;;9.70;100.00;102010.11;1774329;80;22613;-71
2021/10/01 03:45:57;;;;;;;20.92;12.18;;;;;;;9.95;100.00;102011.84;1764461;80;21516;-69
2021/10/01 03:48:23;;;;;;;19.35;12.40;;;;;;;10.39;100.00;102011.00;1770313;80;21226;-70
2021/10/01 03:50:59;;;;;;;16.77;11.48;;;;;;;10.79;100.00;102004.74;1764680;80;20975;-67
2021/10/01 03:53:26;;;;;;;16.67;11.88;;;;;;;11.34;100.00;102008.74;1774199;80;21076;-69
2021/10/01 03:55:53;;;;;;;15.00;9.95;;;;;;;12.54;100.00;102004.50;1759587;80;20935;-68
2021/10/01 03:58:19;;;;;;;15.53;10.72;;;;;;;13.25;100.00;101995.60;1750864;79;20844;-69
2021/10/01 04:00:47;;;;;;;12.33;9.33;;;;;;;13.96;90.86;101998.23;1771792;79;21134;-69
2021/10/01 04:03:15;;;;;;;11.57;8.55;;;;;;;14.50;80.28;101996.77;1756533;80;20980;-70
2021/10/01 04:05:44;;;;;;;17.25;10.35;;;;;;;14.88;74.75;101992.27;1760393;80;21015;-71
2021/10/01 04:08:12;;;;;;;17.00;11.20;;;;;;;15.47;67.87;101997.95;1760577;80;21014;-68
2021/10/01 04:10:41;;;;;;;13.80;10.58;;;;;;;16.14;61.50;101990.77;1739778;79;21065;-69
2021/10/01 04:13:08;;;;;;;12.17;10.27;;;;;;;16.66;58.27;101991.28;1765139;80;21150;-70
2021/10/01 04:15:36;;;;;;;11.77;8.87;;;;;;;17.29;55.07;101987.78;1770233;80;21093;-77
2021/10/01 04:18:05;;;;;;;12.87;8.27;;;;;;;18.17;51.14;101990.10;1770881;80;21216;-69
2021/10/01 04:20:37;;;;;;;9.80;7.83;;;;;;;19.43;45.35;101986.03;1769785;80;21258;-73
2021/10/01 04:23:03;;;;;;;10.10;7.40;;;;;;;19.43;45.35;101986.03;1770914;80;24803;-72
2021/10/01 04:25:38;;;;;;;11.73;7.70;;;;;;;19.75;44.00;101985.03;1752884;80;22370;-72
2021/10/01 04:28:07;;;;;;;7.83;6.90;;;;;;;20.22;42.00;101988.50;1764813;80;21022;-70
2021/10/01 04:30:41;;;;;;;10.43;7.27;;;;;;;20.55;41.21;101989.31;1757137;80;20924;-74
2021/10/01 04:33:13;;;;;;;12.17;7.67;;;;;;;20.78;40.07;101986.70;1749540;79;20990;-69
2021/10/01 04:35:32;;;;;;;12.07;8.37;;;;;;;21.36;38.20;101988.83;1764603;79;21109;-66
2021/10/01 04:37:58;;;;;;;12.50;9.40;;;;;;;21.38;37.00;101987.30;1763107;80;21124;-66
2021/10/01 04:40:25;;;;;;;14.07;10.43;;;;;;;21.18;36.64;101992.69;1759184;79;20920;-67
2021/10/01 04:42:52;;;;;;;16.70;9.70;;;;;;;21.09;36.25;101990.77;1758572;80;21004;-68
2021/10/01 04:45:19;;;;;;;13.10;10.67;;;;;;;20.77;35.80;101993.84;1748658;80;20912;-70
2021/10/01 04:47:47;;;;;;;15.27;10.00;;;;;;;20.37;35.95;102001.83;1759570;79;21144;-64
2021/10/01 04:50:13;;;;;;;11.70;9.43;;;;;;;19.45;36.69;102001.20;1757814;80;21134;-72
2021/10/01 04:52:40;;;;;;;14.37;9.10;;;;;;;18.77;37.80;102008.23;1759272;80;20974;-66
2021/10/01 04:55:07;;;;;;;13.47;9.60;;;;;;;17.99;39.16;102011.69;1724519;81;20966;-65
2021/10/01 04:57:34;;;;;;;20.37;13.47;;;;;;;17.78;39.70;102009.55;1770424;80;20935;-71
2021/10/01 05:00:20;;;;;;;12.43;9.47;;;;;;;17.42;40.07;102017.73;1760385;80;21638;-65
2021/10/01 05:03:06;;;;;;;13.60;9.37;;;;;;;17.14;40.66;102012.34;1749466;80;21617;-66
2021/10/01 05:05:36;;;;;;;14.13;8.73;;;;;;;16.70;41.92;102018.88;1758203;80;21694;-72
2021/10/01 05:08:04;;;;;;;11.17;8.50;;;;;;;16.59;42.66;102027.22;1751579;80;21463;-64
2021/10/01 05:10:49;;;;;;;15.60;8.77;;;;;;;16.39;42.99;102033.49;1741473;80;21168;-67
2021/10/01 05:13:35;;;;;;;11.30;8.67;;;;;;;16.47;43.91;102027.66;1764618;80;21804;-65
2021/10/01 05:16:21;;;;;;;11.33;8.87;;;;;;;16.95;43.61;102024.25;1765724;80;22193;-72
2021/10/01 05:18:53;;;;;;;10.90;7.93;;;;;;;16.95;43.44;102027.38;1745102;81;21197;-72
2021/10/01 05:21:38;;;;;;;12.13;7.57;;;;;;;17.25;43.23;102026.87;1754196;81;21232;-63
2021/10/01 05:24:07;;;;;;;10.63;7.27;;;;;;;17.45;42.97;102029.23;1724072;80;21295;-66
2021/10/01 05:26:33;;;;;;;10.47;7.40;;;;;;;17.44;43.26;102030.75;1739423;80;21312;-72
2021/10/01 05:29:00;;;;;;;10.40;6.97;;;;;;;17.73;42.93;102025.41;1728134;80;22664;-64
2021/10/01 05:31:26;;;;;;;12.03;6.87;;;;;;;17.93;42.22;102023.50;1724000;80;21260;-63
2021/10/01 05:33:53;;;;;;;12.30;8.20;;;;;;;18.07;42.07;102030.54;1751558;80;21218;-63
2021/10/01 05:36:19;;;;;;;21.63;14.63;;;;;;;18.18;41.91;102018.15;1742838;80;21291;-71
2021/10/01 05:38:46;;;;;;;17.13;12.70;;;;;;;17.87;42.14;102027.69;1752269;80;21171;-64
2021/10/01 05:41:13;;;;;;;12.13;6.60;;;;;;;18.08;42.00;102028.71;1748042;80;22422;-64
2021/10/01 05:43:41;;;;;;;8.93;5.63;;;;;;;18.12;41.00;102031.28;1729217;80;21283;-67
2021/10/01 05:46:08;;;;;;;10.00;5.87;;;;;;;18.26;40.76;102025.12;1747743;81;21099;-66
2021/10/01 05:48:58;;;;;;;10.63;5.40;;;;;;;18.20;41.17;102028.00;1738804;81;21299;-66
2021/10/01 05:51:47;;;;;;;8.90;5.80;;;;;;;18.60;40.45;102036.72;1747618;81;21780;-67
2021/10/01 05:54:28;;;;;;;8.27;4.87;;;;;;;18.81;40.09;102035.38;1753685;81;21367;-63
2021/10/01 05:57:13;;;;;;;9.33;5.13;;;;;;;19.95;38.97;102030.84;1758073;81;21380;-71
2021/10/01 05:59:46;;;;;;;7.53;5.33;;;;;;;19.95;38.97;102030.84;1733197;80;21569;-65
2021/10/01 06:02:16;;;;;;;6.77;4.37;;;;;;;20.22;38.09;102041.45;1748568;79;21632;-65
2021/10/01 06:04:44;;;;;;;8.60;5.30;;;;;;;20.44;37.38;102046.86;1753300;80;21735;-65
2021/10/01 06:07:12;;;;;;;7.93;4.73;;;;;;;20.74;37.59;102037.98;1753515;80;21031;-73
2021/10/01 06:09:41;;;;;;;7.37;4.73;;;;;;;21.28;36.49;102029.35;1759500;80;21022;-63
2021/10/01 06:12:12;;;;;;;7.93;5.23;;;;;;;22.01;35.76;102028.45;1756008;80;21430;-63
2021/10/01 06:14:38;;;;;;;7.17;4.25;;;;;;;22.61;34.28;102029.27;1760145;80;20967;-63
2021/10/01 06:17:07;;;;;;;6.93;4.50;;;;;;;22.99;33.41;102026.43;1770922;80;20829;-68
2021/10/01 06:19:36;;;;;;;8.20;4.70;;;;;;;23.09;33.19;102031.77;1755833;80;21157;-61
2021/10/01 06:22:05;;;;;;;7.63;4.17;;;;;;;23.51;32.84;102025.47;1756779;79;21063;-63
2021/10/01 06:24:32;;;;;;;7.80;4.10;;;;;;;24.19;31.75;102033.58;1758919;79;21002;-64
2021/10/01 06:26:58;;;;;;;5.87;3.90;;;;;;;24.43;31.20;102030.95;1727145;82;21505;-64
2021/10/01 06:29:25;;;;;;;5.80;3.63;;;;;;;24.62;29.99;102030.30;1723059;81;21128;-67
2021/10/01 06:31:52;;;;;;;6.97;4.30;;;;;;;24.41;29.88;102032.53;1742556;79;21377;-64
2021/10/01 06:34:19;;;;;;;8.07;4.70;;;;;;;24.48;29.85;102035.89;1758188;80;22441;-63
2021/10/01 06:36:46;;;;;;;6.40;4.50;;;;;;;24.61;29.80;102030.02;1744654;79;21639;-67
2021/10/01 06:39:13;;;;;;;7.23;4.17;;;;;;;24.89;29.50;102026.60;1765090;81;20999;-63
2021/10/01 06:41:41;;;;;;;15.67;5.20;;;;;;;24.96;29.46;102030.79;1756860;80;21070;-64
2021/10/01 06:44:10;;;;;;;10.87;4.43;;;;;;;25.52;28.68;102026.25;1757779;79;21156;-65
2021/10/01 06:52:02;;;;;;;11.83;4.53;;;;;;;25.92;26.74;102028.31;1729776;80;20998;-63
2021/10/01 08:21:26;;;;;;;4.60;2.17;;;;;;;27.91;22.01;101970.20;1736130;80;20995;-65
2021/10/01 08:24:01;;;;;;;3.40;1.87;;;;;;;28.29;21.58;101966.41;1742934;79;21074;-63
2021/10/01 08:26:29;;;;;;;2.43;1.60;;;;;;;27.44;22.37;101960.17;1747323;81;21036;-66
2021/10/01 08:28:55;;;;;;;3.97;1.60;;;;;;;27.39;22.07;101957.73;1750635;81;20981;-73
2021/10/01 08:31:24;;;;;;;4.37;1.77;;;;;;;27.63;22.20;101956.05;1746225;81;21137;-70
2021/10/01 08:33:51;;;;;;;3.40;1.77;;;;;;;27.52;21.16;101955.69;1735439;80;21010;-64
2021/10/01 08:36:18;;;;;;;5.00;2.00;;;;;;;27.60;21.44;101960.57;1721841;81;20970;-66
2021/10/01 08:38:47;;;;;;;2.90;1.30;;;;;;;27.71;21.21;101956.91;1718568;81;20975;-72
2021/10/01 08:41:15;;;;;;;4.70;1.77;;;;;;;27.04;21.22;101949.31;1722410;81;22503;-77
2021/10/01 08:43:42;;;;;;;3.10;1.57;;;;;;;27.10;21.53;101948.31;1757291;81;21478;-64
2021/10/01 08:46:09;;;;;;;3.20;1.60;;;;;;;26.87;21.86;101948.87;1751074;81;22261;-66
2021/10/01 08:48:37;;;;;;;6.00;1.60;;;;;;;26.71;22.11;101945.77;1757346;81;20967;-66
2021/10/01 08:51:07;;;;;;;4.10;1.57;;;;;;;26.86;22.46;101942.45;1756361;80;20936;-72
2021/10/01 08:53:34;;;;;;;2.73;1.57;;;;;;;27.00;22.29;101930.80;1750747;81;20968;-66
2021/10/01 08:56:01;;;;;;;2.90;1.43;;;;;;;27.19;22.09;101936.11;1744493;80;21754;-66
2021/10/01 08:58:28;;;;;;;3.00;1.80;;;;;;;27.15;21.56;101930.98;1748698;80;20924;-76
2021/10/01 09:00:59;;;;;;;2.50;1.30;;;;;;;27.28;21.49;101923.89;1746092;81;20967;-67
2021/10/01 09:03:26;;;;;;;3.98;1.80;;;;;;;27.24;21.39;101923.29;1752827;80;28814;-67
2021/10/01 09:05:53;;;;;;;4.63;2.07;;;;;;;26.55;21.62;101922.02;1760396;79;21117;-65
2021/10/01 09:08:22;;;;;;;3.93;2.10;;;;;;;26.35;22.27;101932.44;1756787;80;21122;-76
2021/10/01 09:11:04;;;;;;;4.53;2.00;;;;;;;26.02;22.50;101930.11;1751751;80;21299;-64
2021/10/01 09:13:34;;;;;;;5.63;2.30;;;;;;;25.90;22.35;101930.74;1763424;80;21272;-63
2021/10/01 09:16:07;;;;;;;5.97;2.57;;;;;;;25.59;22.65;101922.77;1745999;80;21001;-72
2021/10/01 09:18:38;;;;;;;5.57;2.20;;;;;;;25.61;23.04;101936.66;1759943;79;21418;-65
2021/10/01 09:21:12;;;;;;;5.17;2.43;;;;;;;25.73;22.84;101937.41;1764701;80;21764;-69
2021/10/01 09:23:44;;;;;;;4.30;2.63;;;;;;;25.65;22.70;101921.80;1769118;80;21022;-74
2021/10/01 09:26:17;;;;;;;3.83;2.10;;;;;;;25.70;22.81;101924.55;1752071;80;21151;-63
2021/10/01 09:28:54;;;;;;;3.40;1.70;;;;;;;25.32;22.86;101919.39;1756014;80;21498;-64
2021/10/01 09:31:35;;;;;;;4.07;2.33;;;;;;;25.63;22.88;101918.02;1753318;80;21077;-71
2021/10/01 09:34:04;;;;;;;3.33;1.82;;;;;;;25.82;22.90;101917.27;1764301;80;21783;-63
2021/10/01 09:36:32;;;;;;;4.27;1.77;;;;;;;25.77;22.99;101919.05;1753070;79;21062;-65
2021/10/01 09:38:59;;;;;;;3.77;1.60;;;;;;;25.99;23.05;101913.76;1767160;80;21003;-72
2021/10/01 09:41:26;;;;;;;3.90;2.00;;;;;;;25.84;22.49;101914.38;1759270;80;21252;-64
2021/10/01 09:44:03;;;;;;;4.13;2.13;;;;;;;26.13;22.46;101919.05;1760330;80;21589;-65
2021/10/01 09:46:47;;;;;;;4.93;1.73;;;;;;;25.84;22.24;101905.83;1754321;80;21818;-70
2021/10/01 09:49:16;;;;;;;5.23;1.97;;;;;;;25.86;22.70;101909.05;1754175;80;21090;-65
2021/10/01 09:51:53;;;;;;;3.70;1.87;;;;;;;25.64;22.91;101909.48;1755231;80;21022;-66
2021/10/01 09:54:21;;;;;;;4.43;1.70;;;;;;;25.59;22.80;101905.41;1767087;80;20917;-67
2021/10/01 09:56:48;;;;;;;3.13;2.00;;;;;;;25.40;23.48;101894.96;1768356;80;21051;-72
2021/10/01 09:59:22;;;;;;;4.43;2.23;;;;;;;25.79;23.24;101885.70;1769038;80;21175;-66
2021/10/01 10:02:08;;;;;;;3.03;1.90;;;;;;;25.80;23.19;101887.34;1748255;80;20940;-73
2021/10/01 10:04:40;;;;;;;4.00;1.97;;;;;;;25.92;23.03;101889.91;1754714;80;21506;-65
2021/10/01 10:07:20;;;;;;;5.87;2.10;;;;;;;25.87;22.97;101891.95;1747170;81;20970;-64
2021/10/01 10:09:57;;;;;;;4.45;1.80;;;;;;;25.58;22.93;101891.78;1750314;80;21596;-68
2021/10/01 10:12:43;;;;;;;4.50;2.13;;;;;;;25.14;23.36;101891.58;1757601;81;21197;-64
2021/10/01 10:15:13;;;;;;;4.47;1.70;;;;;;;25.19;23.47;101894.33;1764051;81;21205;-65
2021/10/01 10:17:48;;;;;;;3.50;2.10;;;;;;;25.38;22.97;101887.73;1751938;81;21011;-66
2021/10/01 10:20:17;;;;;;;4.37;2.30;;;;;;;25.52;23.07;101874.86;1756454;80;20987;-67
2021/10/01 10:22:46;;;;;;;5.73;2.27;;;;;;;25.51;23.01;101879.92;1762973;81;21015;-65
2021/10/01 10:25:12;;;;;;;4.43;2.30;;;;;;;25.62;23.05;101876.36;1762284;80;21124;-66
2021/10/01 10:27:38;;;;;;;3.37;2.43;;;;;;;25.75;22.71;101881.88;1756842;80;21466;-73
2021/10/01 10:30:08;;;;;;;4.27;2.20;;;;;;;25.72;22.77;101874.34;1763322;81;21411;-65
2021/10/01 10:32:35;;;;;;;4.93;2.20;;;;;;;25.62;22.89;101879.55;1766410;80;21078;-77
2021/10/01 10:35:06;;;;;;;4.63;1.97;;;;;;;25.88;22.84;101870.09;1761782;80;20971;-65
2021/10/01 10:37:47;;;;;;;3.23;1.90;;;;;;;26.06;22.68;101866.30;1762130;80;21142;-66
2021/10/01 10:40:18;;;;;;;6.53;2.50;;;;;;;26.32;22.17;101868.77;1759560;80;21014;-64
2021/10/01 10:42:48;;;;;;;4.03;2.23;;;;;;;26.07;21.98;101868.73;1719232;81;21051;-65
2021/10/01 10:45:23;;;;;;;4.10;2.30;;;;;;;26.00;21.90;101869.44;1748635;80;21073;-66
2021/10/01 10:48:01;;;;;;;3.13;1.87;;;;;;;25.85;22.52;101869.23;1723927;81;21049;-65
2021/10/01 10:50:32;;;;;;;5.13;2.47;;;;;;;25.94;22.37;101868.55;1765807;80;21732;-65
2021/10/01 10:53:16;;;;;;;4.67;2.20;;;;;;;25.85;22.11;101878.05;1759767;81;20909;-65
2021/10/01 10:55:54;;;;;;;3.33;2.00;;;;;;;25.79;22.25;101868.34;1744286;81;21076;-71
2021/10/01 10:58:32;;;;;;;3.50;2.40;;;;;;;25.85;22.28;101864.70;1752648;81;22068;-64
2021/10/01 11:01:19;;;;;;;5.27;2.13;;;;;;;25.93;21.80;101861.59;1749903;81;20961;-66
2021/10/01 11:03:45;;;;;;;3.53;1.80;;;;;;;25.60;22.12;101862.42;1756422;80;21215;-67
2021/10/01 11:06:14;;;;;;;3.97;2.20;;;;;;;25.57;22.43;101854.09;1761955;80;20949;-69
2021/10/01 11:08:51;;;;;;;4.10;2.03;;;;;;;25.50;22.43;101859.63;1754622;81;21593;-70
2021/10/01 11:11:37;;;;;;;5.17;1.90;;;;;;;25.64;22.67;101861.41;1726043;82;21495;-67
2021/10/01 11:14:19;;;;;;;3.07;1.83;;;;;;;25.85;22.24;101856.68;1764648;80;21020;-67
2021/10/01 11:17:02;;;;;;;3.20;1.90;;;;;;;26.07;22.06;101847.89;1767219;80;21367;-68
2021/10/01 11:19:46;;;;;;;6.17;1.93;;;;;;;26.40;21.84;101851.77;1762151;80;21050;-65
2021/10/01 11:22:38;;;;;;;4.33;1.40;;;;;;;26.56;21.92;101845.29;1764230;80;21073;-70
2021/10/01 11:25:16;;;;;;;3.87;2.33;;;;;;;26.26;21.86;101853.73;1771083;80;21093;-65
2021/10/01 11:27:58;;;;;;;3.37;1.73;;;;;;;25.92;22.01;101848.50;1767509;80;21019;-74
2021/10/01 11:30:27;;;;;;;3.07;1.83;;;;;;;26.05;22.26;101841.44;1774069;80;21032;-65
2021/10/01 11:32:59;;;;;;;3.03;1.70;;;;;;;26.25;21.89;101850.77;1759425;79;21498;-65
2021/10/01 11:35:26;;;;;;;3.83;1.70;;;;;;;26.32;21.84;101835.34;1761353;80;20936;-75
2021/10/01 11:37:53;;;;;;;3.97;1.97;;;;;;;26.28;21.85;101836.91;1772495;80;21029;-66
2021/10/01 11:40:29;;;;;;;4.23;1.80;;;;;;;26.43;22.01;101835.20;1766700;80;21126;-64
2021/10/01 11:42:58;;;;;;;4.17;2.47;;;;;;;26.53;22.07;101838.56;1766722;80;21142;-64
2021/10/01 11:45:34;;;;;;;3.47;1.80;;;;;;;26.59;22.00;101840.75;1769989;80;20960;-68
2021/10/01 11:48:03;;;;;;;7.07;2.70;;;;;;;26.80;21.88;101839.91;1767600;80;22263;-65
2021/10/01 11:50:39;;;;;;;4.53;2.40;;;;;;;26.92;21.54;101834.39;1768930;79;21070;-65
2021/10/01 11:53:09;;;;;;;3.57;1.70;;;;;;;26.77;21.70;101835.59;1768250;80;21514;-70
2021/10/01 11:55:35;;;;;;;4.87;1.60;;;;;;;26.11;21.81;101834.31;1759698;80;21198;-65
2021/10/01 11:58:16;;;;;;;4.87;2.23;;;;;;;25.56;22.48;101841.27;1753339;80;21083;-67
2021/10/01 12:00:43;;;;;;;2.60;1.50;;;;;;;25.76;22.38;101834.59;1725217;80;21498;-65
2021/10/01 12:03:15;;;;;;;2.73;1.50;;;;;;;25.61;22.68;101839.19;1766622;80;20972;-65
2021/10/01 12:05:49;;;;;;;3.27;1.57;;;;;;;24.98;22.85;101828.59;1759738;80;21063;-66
2021/10/01 12:08:20;;;;;;;4.77;1.33;;;;;;;25.18;22.64;101830.81;1750075;80;20892;-65
2021/10/01 12:10:50;;;;;;;4.37;2.00;;;;;;;25.86;22.35;101831.58;1749127;80;21568;-66
2021/10/01 12:13:25;;;;;;;2.80;1.72;;;;;;;25.56;22.46;101833.26;1751098;80;21015;-69
2021/10/01 12:16:02;;;;;;;4.43;2.07;;;;;;;25.64;22.41;101821.34;1770496;80;21035;-64
2021/10/01 12:18:38;;;;;;;3.73;1.57;;;;;;;25.67;22.41;101816.33;1770551;80;21034;-66
2021/10/01 12:21:12;;;;;;;4.60;1.57;;;;;;;25.68;22.57;101817.13;1771352;80;21782;-64
2021/10/01 12:23:59;;;;;;;2.70;1.67;;;;;;;25.29;22.79;101817.63;1766275;80;20916;-65
2021/10/01 12:26:34;;;;;;;3.00;1.73;;;;;;;25.43;22.57;101821.06;1767977;80;21073;-65
2021/10/01 12:29:12;;;;;;;3.27;1.50;;;;;;;25.67;22.25;101814.99;1746825;80;22437;-66
2021/10/01 12:31:49;;;;;;;3.43;1.47;;;;;;;25.57;22.40;101824.72;1750602;80;21536;-68
2021/10/01 12:34:29;;;;;;;3.50;1.40;;;;;;;25.28;22.32;101820.83;1753159;80;21103;-69
2021/10/01 12:37:05;;;;;;;5.30;1.60;;;;;;;25.19;22.69;101819.60;1750302;80;21012;-66
2021/10/01 12:39:36;;;;;;;3.03;1.60;;;;;;;25.53;22.31;101817.72;1763366;80;20998;-65
2021/10/01 12:42:09;;;;;;;2.53;1.27;;;;;;;25.51;21.90;101817.70;1765042;79;21040;-68
2021/10/01 12:44:39;;;;;;;3.63;1.57;;;;;;;25.46;22.22;101817.91;1754459;80;21063;-66
2021/10/01 12:47:18;;;;;;;2.63;1.13;;;;;;;25.39;22.29;101817.80;1756500;79;21128;-74
2021/10/01 12:50:07;;;;;;;2.53;1.40;;;;;;;25.32;22.28;101816.63;1761889;80;21079;-74
2021/10/01 12:52:33;;;;;;;3.27;1.20;;;;;;;25.29;22.44;101813.63;1766380;80;20951;-66
2021/10/01 12:55:09;;;;;;;2.37;1.30;;;;;;;25.30;22.36;101813.37;1766029;80;20909;-65
2021/10/01 12:57:49;;;;;;;4.53;2.00;;;;;;;25.42;22.23;101816.78;1758520;80;21710;-64
2021/10/01 13:00:22;;;;;;;2.50;1.27;;;;;;;25.30;22.38;101805.89;1762261;80;21186;-64
2021/10/01 13:02:55;;;;;;;3.50;1.70;;;;;;;25.16;22.82;101809.44;1751223;80;20967;-64
2021/10/01 13:05:32;;;;;;;2.57;1.47;;;;;;;24.69;23.53;101813.66;1753222;80;22193;-64
2021/10/01 13:08:08;;;;;;;3.70;1.53;;;;;;;24.85;22.99;101804.91;1741504;80;21434;-68
2021/10/01 13:10:45;;;;;;;2.97;1.50;;;;;;;24.83;23.13;101806.18;1757782;80;22098;-71
2021/10/01 13:13:22;;;;;;;4.93;1.70;;;;;;;24.90;23.64;101802.31;1773166;80;21272;-64
2021/10/01 13:15:52;;;;;;;3.03;1.60;;;;;;;25.19;23.16;101805.76;1732987;82;46896;-75